B603L ZSJN-ZWWW
Flight info
| Callsign | B603L |
|---|---|
| Flight time | 4h 5m |
| Altitude | 38100 |
| Route | EXUVU W4 TAMIX B208 AGVUR W87 GODON B215 LEBOM W104 VEXEB W47 IDSOT W48 DKO W66 NUKTI B215 HAM W99 FKG B215 WUR |
| Aircraft | CL60/M-SBDE1E2E3FGHIJ1J4J5J7M3RWXYZ/LB1V1D1 |
Departure
| Time | 2026-04-23 10:36 |
|---|---|
| Airport | Jinan Yaoqiang International Airport (ZSJN) |
Arrival
| Time | 2026-04-23 14:42 |
|---|---|
| Airport | Ürümqi Tianshan International Airport (ZWWW) |
| Time | Latitude | Longitude | Altitude | Speed | Heading |
|---|---|---|---|---|---|
| 2026-04-23 10:26 | 36.84222 | 117.20907 | 82 ft | 0 kts | 179° |
| 2026-04-23 10:33 | 36.84200 | 117.20907 | 83 ft | 5 kts | 181° |
| 2026-04-23 10:33 | 36.84156 | 117.20924 | 83 ft | 8 kts | 124° |
| 2026-04-23 10:33 | 36.84150 | 117.21012 | 82 ft | 11 kts | 91° |
| 2026-04-23 10:34 | 36.84150 | 117.21124 | 82 ft | 14 kts | 89° |
| 2026-04-23 10:34 | 36.84123 | 117.21240 | 82 ft | 14 kts | 105° |
| 2026-04-23 10:34 | 36.84119 | 117.21330 | 82 ft | 16 kts | 89° |
| 2026-04-23 10:34 | 36.84119 | 117.21474 | 82 ft | 0 kts | 89° |
| 2026-04-23 10:35 | 36.84119 | 117.21498 | 82 ft | 5 kts | 89° |
| 2026-04-23 10:35 | 36.84126 | 117.21582 | 82 ft | 13 kts | 49° |
| 2026-04-23 10:36 | 36.84226 | 117.21600 | 82 ft | 16 kts | 359° |
| 2026-04-23 10:36 | 36.84640 | 117.21600 | 83 ft | 106 kts | 359° |
| 2026-04-23 10:36 | 36.85631 | 117.21605 | 215 ft | 166 kts | 359° |
| 2026-04-23 10:36 | 36.86871 | 117.21619 | 851 ft | 187 kts | 359° |
| 2026-04-23 10:37 | 36.88178 | 117.21619 | 1468 ft | 186 kts | 359° |
| 2026-04-23 10:37 | 36.89441 | 117.21617 | 2032 ft | 181 kts | 358° |
| 2026-04-23 10:37 | 36.90698 | 117.21614 | 2557 ft | 181 kts | 358° |
| 2026-04-23 10:37 | 36.91956 | 117.21612 | 3064 ft | 182 kts | 358° |
| 2026-04-23 10:38 | 36.93280 | 117.21608 | 3506 ft | 202 kts | 358° |
| 2026-04-23 10:38 | 36.94281 | 117.21602 | 3772 ft | 227 kts | 358° |
| 2026-04-23 10:38 | 36.96547 | 117.21594 | 4598 ft | 259 kts | 358° |
| 2026-04-23 10:38 | 36.97751 | 117.21593 | 5098 ft | 270 kts | 358° |
| 2026-04-23 10:39 | 37.00324 | 117.21591 | 6186 ft | 283 kts | 359° |
| 2026-04-23 10:39 | 37.01660 | 117.21591 | 6754 ft | 290 kts | 359° |
| 2026-04-23 10:39 | 37.03711 | 117.21590 | 7730 ft | 296 kts | 359° |
| 2026-04-23 10:39 | 37.06455 | 117.21584 | 9050 ft | 299 kts | 355° |
| 2026-04-23 10:40 | 37.08461 | 117.21054 | 9951 ft | 300 kts | 335° |
| 2026-04-23 10:40 | 37.10216 | 117.19649 | 10803 ft | 301 kts | 314° |
| 2026-04-23 10:40 | 37.11094 | 117.18304 | 11381 ft | 301 kts | 299° |
| 2026-04-23 10:40 | 37.11829 | 117.15880 | 12273 ft | 301 kts | 278° |
| 2026-04-23 10:41 | 37.11916 | 117.12410 | 13427 ft | 305 kts | 269° |
| 2026-04-23 10:41 | 37.11910 | 117.10661 | 14005 ft | 308 kts | 270° |
| 2026-04-23 10:41 | 37.11905 | 117.07982 | 14886 ft | 312 kts | 270° |
| 2026-04-23 10:41 | 37.11902 | 117.04343 | 16057 ft | 318 kts | 271° |
| 2026-04-23 10:42 | 37.12038 | 117.01566 | 16914 ft | 322 kts | 276° |
| 2026-04-23 10:42 | 37.12270 | 116.98787 | 17742 ft | 327 kts | 276° |
| 2026-04-23 10:42 | 37.12425 | 116.96920 | 18226 ft | 330 kts | 276° |
| 2026-04-23 10:42 | 37.12738 | 116.93121 | 19292 ft | 331 kts | 277° |
| 2026-04-23 10:43 | 37.12898 | 116.91184 | 19866 ft | 332 kts | 277° |
| 2026-04-23 10:43 | 37.13209 | 116.87391 | 21085 ft | 335 kts | 278° |
| 2026-04-23 10:43 | 37.13447 | 116.84468 | 21914 ft | 337 kts | 278° |
| 2026-04-23 10:43 | 37.13476 | 116.81540 | 22572 ft | 344 kts | 264° |
| 2026-04-23 10:44 | 37.13075 | 116.79595 | 23003 ft | 349 kts | 251° |
| 2026-04-23 10:44 | 37.12125 | 116.76759 | 23648 ft | 355 kts | 249° |
| 2026-04-23 10:44 | 37.10831 | 116.72965 | 24546 ft | 359 kts | 249° |
| 2026-04-23 10:44 | 37.09847 | 116.70073 | 25202 ft | 362 kts | 249° |
| 2026-04-23 10:45 | 37.08854 | 116.67158 | 25795 ft | 365 kts | 249° |
| 2026-04-23 10:45 | 37.08189 | 116.65208 | 26180 ft | 367 kts | 249° |
| 2026-04-23 10:45 | 37.07191 | 116.62280 | 26737 ft | 370 kts | 249° |
| 2026-04-23 10:45 | 37.05837 | 116.58314 | 27474 ft | 374 kts | 250° |
| 2026-04-23 10:46 | 37.05154 | 116.56312 | 27822 ft | 375 kts | 250° |
| 2026-04-23 10:46 | 37.04132 | 116.53321 | 28342 ft | 377 kts | 250° |
| 2026-04-23 10:46 | 37.03094 | 116.50285 | 28812 ft | 380 kts | 250° |
| 2026-04-23 10:46 | 37.01702 | 116.46217 | 29429 ft | 384 kts | 250° |
| 2026-04-23 10:47 | 37.00996 | 116.44157 | 29734 ft | 386 kts | 250° |
| 2026-04-23 10:47 | 36.99931 | 116.41050 | 30169 ft | 388 kts | 250° |
| 2026-04-23 10:47 | 36.98875 | 116.37972 | 30565 ft | 391 kts | 250° |
| 2026-04-23 10:47 | 36.97432 | 116.33775 | 31125 ft | 392 kts | 249° |
| 2026-04-23 10:48 | 36.96353 | 116.30638 | 31489 ft | 395 kts | 249° |
| 2026-04-23 10:48 | 36.95273 | 116.27502 | 31867 ft | 396 kts | 249° |
| 2026-04-23 10:48 | 36.94548 | 116.25399 | 32100 ft | 397 kts | 249° |
| 2026-04-23 10:48 | 36.93076 | 116.21131 | 32536 ft | 399 kts | 249° |
| 2026-04-23 10:49 | 36.91976 | 116.17947 | 32876 ft | 400 kts | 249° |
| 2026-04-23 10:49 | 36.90888 | 116.14799 | 33186 ft | 401 kts | 249° |
| 2026-04-23 10:49 | 36.90144 | 116.12652 | 33414 ft | 401 kts | 249° |
| 2026-04-23 10:49 | 36.88658 | 116.08361 | 33770 ft | 404 kts | 249° |
| 2026-04-23 10:50 | 36.87539 | 116.05135 | 34028 ft | 406 kts | 249° |
| 2026-04-23 10:50 | 36.86789 | 116.02975 | 34244 ft | 405 kts | 249° |
| 2026-04-23 10:50 | 36.85671 | 115.99760 | 34583 ft | 403 kts | 250° |
| 2026-04-23 10:50 | 36.84563 | 115.96578 | 34892 ft | 401 kts | 249° |
| 2026-04-23 10:51 | 36.83458 | 115.93406 | 35220 ft | 398 kts | 249° |
| 2026-04-23 10:51 | 36.82360 | 115.90256 | 35501 ft | 394 kts | 249° |
| 2026-04-23 10:51 | 36.81270 | 115.87135 | 35775 ft | 392 kts | 249° |
| 2026-04-23 10:51 | 36.79818 | 115.82977 | 36025 ft | 393 kts | 249° |
| 2026-04-23 10:52 | 36.77993 | 115.77760 | 36038 ft | 397 kts | 249° |
| 2026-04-23 10:52 | 36.75778 | 115.71452 | 36051 ft | 394 kts | 249° |
| 2026-04-23 10:53 | 36.73598 | 115.65254 | 36020 ft | 392 kts | 249° |
| 2026-04-23 10:53 | 36.71405 | 115.59034 | 36031 ft | 391 kts | 249° |
| 2026-04-23 10:54 | 36.69214 | 115.52830 | 36036 ft | 391 kts | 249° |
| 2026-04-23 10:54 | 36.67018 | 115.46623 | 36042 ft | 392 kts | 249° |
| 2026-04-23 10:55 | 36.64831 | 115.40456 | 36055 ft | 391 kts | 250° |
| 2026-04-23 10:55 | 36.62629 | 115.34255 | 36032 ft | 391 kts | 249° |
| 2026-04-23 10:56 | 36.60416 | 115.28038 | 36040 ft | 392 kts | 249° |
| 2026-04-23 10:56 | 36.58225 | 115.21890 | 36044 ft | 391 kts | 249° |
| 2026-04-23 10:57 | 36.55856 | 115.15776 | 36030 ft | 394 kts | 241° |
| 2026-04-23 10:57 | 36.52325 | 115.10525 | 36034 ft | 400 kts | 227° |
| 2026-04-23 10:58 | 36.48280 | 115.05753 | 36018 ft | 401 kts | 227° |
| 2026-04-23 10:58 | 36.44249 | 115.00996 | 36033 ft | 400 kts | 227° |
| 2026-04-23 10:59 | 36.40204 | 114.96230 | 36024 ft | 399 kts | 227° |
| 2026-04-23 10:59 | 36.36346 | 114.91352 | 36027 ft | 395 kts | 236° |
| 2026-04-23 11:00 | 36.33471 | 114.85605 | 36028 ft | 391 kts | 243° |
| 2026-04-23 11:00 | 36.30707 | 114.79752 | 36173 ft | 394 kts | 243° |
| 2026-04-23 11:01 | 36.29320 | 114.76817 | 36399 ft | 394 kts | 243° |
| 2026-04-23 11:01 | 36.27932 | 114.73910 | 36721 ft | 391 kts | 242° |
| 2026-04-23 11:01 | 36.26502 | 114.71091 | 37085 ft | 387 kts | 241° |
| 2026-04-23 11:01 | 36.25054 | 114.68263 | 37342 ft | 386 kts | 241° |
| 2026-04-23 11:02 | 36.23630 | 114.65482 | 37569 ft | 385 kts | 241° |
| 2026-04-23 11:02 | 36.22193 | 114.62676 | 37796 ft | 384 kts | 241° |
| 2026-04-23 11:02 | 36.20757 | 114.59876 | 37978 ft | 384 kts | 241° |
| 2026-04-23 11:02 | 36.19334 | 114.57101 | 38026 ft | 388 kts | 242° |
| 2026-04-23 11:03 | 36.16394 | 114.51372 | 38045 ft | 397 kts | 241° |
| 2026-04-23 11:03 | 36.12895 | 114.44568 | 38034 ft | 407 kts | 241° |
| 2026-04-23 11:04 | 36.10344 | 114.39616 | 38017 ft | 414 kts | 241° |
| 2026-04-23 11:04 | 36.07237 | 114.33589 | 38033 ft | 419 kts | 241° |
| 2026-04-23 11:05 | 36.04200 | 114.27365 | 38044 ft | 424 kts | 242° |
| 2026-04-23 11:05 | 36.00644 | 114.20043 | 38035 ft | 428 kts | 242° |
| 2026-04-23 11:06 | 35.96571 | 114.11669 | 38033 ft | 429 kts | 242° |
| 2026-04-23 11:07 | 35.93488 | 114.05344 | 38039 ft | 428 kts | 242° |
| 2026-04-23 11:07 | 35.90435 | 113.99091 | 38039 ft | 428 kts | 242° |
| 2026-04-23 11:08 | 35.87350 | 113.92782 | 38088 ft | 427 kts | 242° |
| 2026-04-23 11:08 | 35.84261 | 113.86476 | 37943 ft | 431 kts | 242° |
| 2026-04-23 11:09 | 35.81184 | 113.80209 | 38058 ft | 429 kts | 242° |
| 2026-04-23 11:09 | 35.78092 | 113.73922 | 38062 ft | 429 kts | 242° |
| 2026-04-23 11:10 | 35.75006 | 113.67659 | 38089 ft | 429 kts | 242° |
| 2026-04-23 11:10 | 35.71894 | 113.61354 | 38102 ft | 429 kts | 243° |
| 2026-04-23 11:11 | 35.69257 | 113.54879 | 38121 ft | 422 kts | 256° |
| 2026-04-23 11:11 | 35.68523 | 113.47817 | 38121 ft | 418 kts | 275° |
| 2026-04-23 11:12 | 35.70305 | 113.39838 | 38120 ft | 420 kts | 297° |
| 2026-04-23 11:12 | 35.73181 | 113.34996 | 38126 ft | 425 kts | 313° |
| 2026-04-23 11:13 | 35.78051 | 113.30784 | 38129 ft | 435 kts | 331° |
| 2026-04-23 11:13 | 35.83834 | 113.28378 | 38122 ft | 440 kts | 338° |
| 2026-04-23 11:14 | 35.89681 | 113.26154 | 38120 ft | 439 kts | 338° |
| 2026-04-23 11:14 | 35.95476 | 113.23881 | 38121 ft | 439 kts | 338° |
| 2026-04-23 11:15 | 36.01292 | 113.21529 | 38119 ft | 439 kts | 337° |
| 2026-04-23 11:15 | 36.07090 | 113.19114 | 38109 ft | 439 kts | 337° |
| 2026-04-23 11:16 | 36.12864 | 113.16593 | 38123 ft | 438 kts | 336° |
| 2026-04-23 11:16 | 36.18623 | 113.14026 | 38109 ft | 438 kts | 336° |
| 2026-04-23 11:17 | 36.24340 | 113.11501 | 38099 ft | 438 kts | 339° |
| 2026-04-23 11:17 | 36.30238 | 113.09565 | 38116 ft | 439 kts | 341° |
| 2026-04-23 11:18 | 36.36200 | 113.07651 | 38107 ft | 440 kts | 341° |
| 2026-04-23 11:18 | 36.42125 | 113.05740 | 38129 ft | 439 kts | 341° |
| 2026-04-23 11:19 | 36.48052 | 113.03822 | 38099 ft | 440 kts | 342° |
| 2026-04-23 11:19 | 36.53945 | 113.01909 | 38123 ft | 439 kts | 341° |
| 2026-04-23 11:20 | 36.59899 | 112.99970 | 38116 ft | 440 kts | 341° |
| 2026-04-23 11:20 | 36.65810 | 112.98041 | 38118 ft | 439 kts | 342° |
| 2026-04-23 11:21 | 36.71770 | 112.96091 | 38130 ft | 439 kts | 342° |
| 2026-04-23 11:21 | 36.77685 | 112.94152 | 38121 ft | 440 kts | 342° |
| 2026-04-23 11:22 | 36.83642 | 112.92196 | 38122 ft | 440 kts | 342° |
| 2026-04-23 11:22 | 36.89570 | 112.90245 | 38126 ft | 439 kts | 342° |
| 2026-04-23 11:23 | 36.95466 | 112.88302 | 38119 ft | 439 kts | 342° |
| 2026-04-23 11:23 | 37.01388 | 112.86346 | 38126 ft | 438 kts | 342° |
| 2026-04-23 11:24 | 37.07263 | 112.84405 | 38105 ft | 439 kts | 342° |
| 2026-04-23 11:24 | 37.13213 | 112.82439 | 38109 ft | 439 kts | 342° |
| 2026-04-23 11:25 | 37.19094 | 112.80493 | 38120 ft | 438 kts | 342° |
| 2026-04-23 11:25 | 37.25006 | 112.78534 | 38113 ft | 439 kts | 342° |
| 2026-04-23 11:26 | 37.30945 | 112.76562 | 38117 ft | 439 kts | 342° |
| 2026-04-23 11:26 | 37.35368 | 112.75091 | 38107 ft | 439 kts | 342° |
| 2026-04-23 11:27 | 37.41295 | 112.73118 | 38083 ft | 439 kts | 342° |
| 2026-04-23 11:27 | 37.47205 | 112.71147 | 38072 ft | 439 kts | 342° |
| 2026-04-23 11:28 | 37.53109 | 112.69176 | 38077 ft | 438 kts | 342° |
| 2026-04-23 11:28 | 37.59025 | 112.67196 | 38080 ft | 438 kts | 342° |
| 2026-04-23 11:29 | 37.64886 | 112.65163 | 38060 ft | 437 kts | 338° |
| 2026-04-23 11:29 | 37.70166 | 112.61501 | 38058 ft | 431 kts | 319° |
| 2026-04-23 11:30 | 37.74070 | 112.55822 | 38062 ft | 429 kts | 300° |
| 2026-04-23 11:30 | 37.76159 | 112.48781 | 38060 ft | 430 kts | 281° |
| 2026-04-23 11:31 | 37.76880 | 112.41282 | 38093 ft | 431 kts | 278° |
| 2026-04-23 11:31 | 37.77565 | 112.33736 | 38087 ft | 431 kts | 278° |
| 2026-04-23 11:32 | 37.78294 | 112.26226 | 38124 ft | 430 kts | 278° |
| 2026-04-23 11:32 | 37.79017 | 112.18745 | 38138 ft | 430 kts | 278° |
| 2026-04-23 11:33 | 37.79740 | 112.11215 | 38152 ft | 430 kts | 278° |
| 2026-04-23 11:33 | 37.80455 | 112.03725 | 38153 ft | 429 kts | 278° |
| 2026-04-23 11:34 | 37.81163 | 111.96259 | 38149 ft | 430 kts | 278° |
| 2026-04-23 11:34 | 37.81874 | 111.88705 | 38145 ft | 430 kts | 278° |
| 2026-04-23 11:35 | 37.82575 | 111.81215 | 38145 ft | 430 kts | 278° |
| 2026-04-23 11:35 | 37.83272 | 111.73721 | 38148 ft | 430 kts | 278° |
| 2026-04-23 11:36 | 37.84050 | 111.66205 | 38145 ft | 430 kts | 279° |
| 2026-04-23 11:36 | 37.85019 | 111.58730 | 38144 ft | 429 kts | 285° |
| 2026-04-23 11:37 | 37.87197 | 111.51726 | 38141 ft | 428 kts | 300° |
| 2026-04-23 11:37 | 37.90685 | 111.45669 | 38135 ft | 428 kts | 313° |
| 2026-04-23 11:38 | 37.95206 | 111.40771 | 38126 ft | 429 kts | 321° |
| 2026-04-23 11:38 | 37.99931 | 111.36110 | 38121 ft | 430 kts | 321° |
| 2026-04-23 11:39 | 38.04669 | 111.31426 | 38128 ft | 430 kts | 321° |
| 2026-04-23 11:39 | 38.09399 | 111.26743 | 38129 ft | 431 kts | 321° |
| 2026-04-23 11:40 | 38.14135 | 111.22048 | 38124 ft | 430 kts | 321° |
| 2026-04-23 11:40 | 38.18876 | 111.17342 | 38106 ft | 430 kts | 321° |
| 2026-04-23 11:41 | 38.23586 | 111.12657 | 38107 ft | 430 kts | 321° |
| 2026-04-23 11:41 | 38.28312 | 111.07950 | 38108 ft | 430 kts | 321° |
| 2026-04-23 11:42 | 38.33012 | 111.03262 | 38092 ft | 430 kts | 321° |
| 2026-04-23 11:42 | 38.37745 | 110.98532 | 38075 ft | 431 kts | 321° |
| 2026-04-23 11:43 | 38.42474 | 110.93800 | 38066 ft | 432 kts | 321° |
| 2026-04-23 11:43 | 38.47248 | 110.89013 | 38061 ft | 432 kts | 321° |
| 2026-04-23 11:44 | 38.51987 | 110.84255 | 38058 ft | 432 kts | 321° |
| 2026-04-23 11:44 | 38.56683 | 110.79531 | 38067 ft | 432 kts | 320° |
| 2026-04-23 11:45 | 38.61406 | 110.74773 | 38067 ft | 431 kts | 321° |
| 2026-04-23 11:45 | 38.66119 | 110.70015 | 38059 ft | 432 kts | 320° |
| 2026-04-23 11:46 | 38.70832 | 110.65250 | 38060 ft | 432 kts | 320° |
| 2026-04-23 11:46 | 38.75543 | 110.60480 | 38072 ft | 432 kts | 320° |
| 2026-04-23 11:47 | 38.80261 | 110.55694 | 38047 ft | 432 kts | 321° |
| 2026-04-23 11:47 | 38.84964 | 110.50913 | 38061 ft | 431 kts | 320° |
| 2026-04-23 11:48 | 38.89679 | 110.46113 | 38057 ft | 432 kts | 320° |
| 2026-04-23 11:48 | 38.94372 | 110.41327 | 38064 ft | 432 kts | 320° |
| 2026-04-23 11:49 | 38.99115 | 110.36537 | 38065 ft | 433 kts | 321° |
| 2026-04-23 11:49 | 39.03870 | 110.31745 | 38072 ft | 432 kts | 320° |
| 2026-04-23 11:50 | 39.08586 | 110.26984 | 38069 ft | 432 kts | 320° |
| 2026-04-23 11:50 | 39.13173 | 110.22040 | 38048 ft | 430 kts | 313° |
| 2026-04-23 11:51 | 39.16815 | 110.15937 | 38061 ft | 428 kts | 299° |
| 2026-04-23 11:51 | 39.19146 | 110.08910 | 38065 ft | 428 kts | 286° |
| 2026-04-23 11:52 | 39.20078 | 110.01379 | 38073 ft | 429 kts | 274° |
| 2026-04-23 11:52 | 39.20436 | 109.93677 | 38069 ft | 429 kts | 274° |
| 2026-04-23 11:53 | 39.20792 | 109.86016 | 38077 ft | 429 kts | 274° |
| 2026-04-23 11:53 | 39.21145 | 109.78326 | 38071 ft | 429 kts | 274° |
| 2026-04-23 11:54 | 39.21492 | 109.70667 | 38080 ft | 428 kts | 274° |
| 2026-04-23 11:54 | 39.21833 | 109.63017 | 38067 ft | 428 kts | 274° |
| 2026-04-23 11:55 | 39.22169 | 109.55394 | 38081 ft | 428 kts | 274° |
| 2026-04-23 11:55 | 39.22497 | 109.47705 | 38107 ft | 428 kts | 274° |
| 2026-04-23 11:56 | 39.22792 | 109.40063 | 38105 ft | 428 kts | 274° |
| 2026-04-23 11:56 | 39.23085 | 109.32365 | 38088 ft | 428 kts | 274° |
| 2026-04-23 11:57 | 39.23370 | 109.24741 | 38111 ft | 427 kts | 274° |
| 2026-04-23 11:57 | 39.23650 | 109.17104 | 38096 ft | 427 kts | 274° |
| 2026-04-23 11:58 | 39.23925 | 109.09489 | 38104 ft | 426 kts | 273° |
| 2026-04-23 11:58 | 39.24196 | 109.01865 | 38093 ft | 426 kts | 273° |
| 2026-04-23 11:59 | 39.24461 | 108.94245 | 38095 ft | 426 kts | 273° |
| 2026-04-23 11:59 | 39.24723 | 108.86584 | 38098 ft | 427 kts | 273° |
| 2026-04-23 12:00 | 39.24979 | 108.78974 | 38091 ft | 427 kts | 273° |
| 2026-04-23 12:00 | 39.25233 | 108.71322 | 38085 ft | 426 kts | 273° |
| 2026-04-23 12:01 | 39.25480 | 108.63740 | 38085 ft | 425 kts | 273° |
| 2026-04-23 12:01 | 39.25723 | 108.56101 | 38092 ft | 425 kts | 273° |
| 2026-04-23 12:02 | 39.26001 | 108.47205 | 38090 ft | 425 kts | 273° |
| 2026-04-23 12:02 | 39.26193 | 108.40897 | 38087 ft | 426 kts | 273° |
| 2026-04-23 12:03 | 39.26421 | 108.33269 | 38099 ft | 425 kts | 272° |
| 2026-04-23 12:03 | 39.26644 | 108.25650 | 38108 ft | 425 kts | 272° |
| 2026-04-23 12:04 | 39.27293 | 108.18108 | 38119 ft | 424 kts | 283° |
| 2026-04-23 12:04 | 39.29333 | 108.10951 | 38106 ft | 426 kts | 296° |
| 2026-04-23 12:05 | 39.32687 | 108.04685 | 38108 ft | 429 kts | 310° |
| 2026-04-23 12:05 | 39.37118 | 107.99479 | 38103 ft | 431 kts | 317° |
| 2026-04-23 12:06 | 39.41710 | 107.94521 | 38099 ft | 432 kts | 317° |
| 2026-04-23 12:06 | 39.48643 | 107.87010 | 38088 ft | 432 kts | 317° |
| 2026-04-23 12:07 | 39.53212 | 107.82050 | 38073 ft | 431 kts | 317° |
| 2026-04-23 12:07 | 39.57820 | 107.77036 | 38064 ft | 431 kts | 317° |
| 2026-04-23 12:08 | 39.62389 | 107.72057 | 38060 ft | 431 kts | 317° |
| 2026-04-23 12:08 | 39.66980 | 107.67045 | 38067 ft | 431 kts | 317° |
| 2026-04-23 12:09 | 39.71550 | 107.62048 | 38065 ft | 432 kts | 317° |
| 2026-04-23 12:09 | 39.76157 | 107.56998 | 38077 ft | 431 kts | 317° |
| 2026-04-23 12:10 | 39.80731 | 107.51977 | 38062 ft | 431 kts | 317° |
| 2026-04-23 12:10 | 39.85324 | 107.46925 | 38065 ft | 432 kts | 317° |
| 2026-04-23 12:11 | 39.89905 | 107.41877 | 38070 ft | 431 kts | 317° |
| 2026-04-23 12:11 | 39.94486 | 107.36820 | 38081 ft | 433 kts | 317° |
| 2026-04-23 12:12 | 39.99056 | 107.31767 | 38089 ft | 433 kts | 317° |
| 2026-04-23 12:12 | 40.03637 | 107.26692 | 38079 ft | 432 kts | 317° |
| 2026-04-23 12:13 | 40.08201 | 107.21626 | 38072 ft | 432 kts | 317° |
| 2026-04-23 12:13 | 40.12785 | 107.16528 | 38073 ft | 431 kts | 317° |
| 2026-04-23 12:14 | 40.17366 | 107.11424 | 38057 ft | 432 kts | 317° |
| 2026-04-23 12:14 | 40.21903 | 107.06362 | 38050 ft | 432 kts | 317° |
| 2026-04-23 12:15 | 40.26479 | 107.01231 | 38029 ft | 432 kts | 315° |
| 2026-04-23 12:15 | 40.30365 | 106.95384 | 38032 ft | 427 kts | 301° |
| 2026-04-23 12:16 | 40.32951 | 106.88437 | 38037 ft | 425 kts | 289° |
| 2026-04-23 12:16 | 40.34898 | 106.81134 | 38025 ft | 425 kts | 289° |
| 2026-04-23 12:17 | 40.36839 | 106.73838 | 38025 ft | 425 kts | 289° |
| 2026-04-23 12:17 | 40.38784 | 106.66503 | 38019 ft | 425 kts | 289° |
| 2026-04-23 12:18 | 40.40705 | 106.59233 | 38014 ft | 425 kts | 289° |
| 2026-04-23 12:18 | 40.42633 | 106.51918 | 38009 ft | 424 kts | 289° |
| 2026-04-23 12:19 | 40.44561 | 106.44582 | 38009 ft | 425 kts | 289° |
| 2026-04-23 12:19 | 40.46476 | 106.37266 | 38017 ft | 425 kts | 289° |
| 2026-04-23 12:20 | 40.48396 | 106.29913 | 38034 ft | 426 kts | 288° |
| 2026-04-23 12:20 | 40.50304 | 106.22585 | 38029 ft | 426 kts | 289° |
| 2026-04-23 12:21 | 40.52209 | 106.15246 | 38036 ft | 426 kts | 289° |
| 2026-04-23 12:21 | 40.54122 | 106.07851 | 38060 ft | 426 kts | 289° |
| 2026-04-23 12:22 | 40.56026 | 106.00472 | 38058 ft | 426 kts | 289° |
| 2026-04-23 12:22 | 40.57920 | 105.93107 | 38054 ft | 427 kts | 289° |
| 2026-04-23 12:23 | 40.59806 | 105.85750 | 38058 ft | 426 kts | 289° |
| 2026-04-23 12:23 | 40.61688 | 105.78389 | 38067 ft | 425 kts | 289° |
| 2026-04-23 12:24 | 40.63576 | 105.70981 | 38063 ft | 426 kts | 289° |
| 2026-04-23 12:24 | 40.65444 | 105.63625 | 38071 ft | 426 kts | 289° |
| 2026-04-23 12:25 | 40.67318 | 105.56225 | 38062 ft | 426 kts | 289° |
| 2026-04-23 12:25 | 40.69178 | 105.48858 | 38059 ft | 425 kts | 289° |
| 2026-04-23 12:26 | 40.71037 | 105.41473 | 38047 ft | 425 kts | 289° |
| 2026-04-23 12:26 | 40.72883 | 105.34115 | 38051 ft | 425 kts | 289° |
| 2026-04-23 12:27 | 40.74730 | 105.26729 | 38047 ft | 425 kts | 289° |
| 2026-04-23 12:27 | 40.76574 | 105.19329 | 38043 ft | 425 kts | 289° |
| 2026-04-23 12:28 | 40.78408 | 105.11951 | 38042 ft | 424 kts | 289° |
| 2026-04-23 12:28 | 40.80236 | 105.04575 | 38058 ft | 424 kts | 289° |
| 2026-04-23 12:29 | 40.82060 | 104.97189 | 38067 ft | 425 kts | 289° |
| 2026-04-23 12:29 | 40.83889 | 104.89761 | 38067 ft | 425 kts | 289° |
| 2026-04-23 12:30 | 40.85716 | 104.82318 | 38065 ft | 425 kts | 289° |
| 2026-04-23 12:30 | 40.87531 | 104.74899 | 38067 ft | 424 kts | 289° |
| 2026-04-23 12:31 | 40.89349 | 104.67444 | 38072 ft | 424 kts | 289° |
| 2026-04-23 12:31 | 40.91154 | 104.60019 | 38073 ft | 424 kts | 289° |
| 2026-04-23 12:32 | 40.92943 | 104.52638 | 38073 ft | 424 kts | 289° |
| 2026-04-23 12:32 | 40.94741 | 104.45191 | 38068 ft | 424 kts | 289° |
| 2026-04-23 12:33 | 40.96532 | 104.37757 | 38079 ft | 424 kts | 289° |
| 2026-04-23 12:33 | 40.98347 | 104.30355 | 38058 ft | 423 kts | 291° |
| 2026-04-23 12:34 | 41.00442 | 104.23102 | 38052 ft | 423 kts | 292° |
| 2026-04-23 12:34 | 41.02531 | 104.15874 | 38048 ft | 423 kts | 292° |
| 2026-04-23 12:35 | 41.04627 | 104.08602 | 38039 ft | 423 kts | 292° |
| 2026-04-23 12:35 | 41.06713 | 104.01337 | 38048 ft | 423 kts | 292° |
| 2026-04-23 12:36 | 41.08803 | 103.94038 | 38067 ft | 423 kts | 292° |
| 2026-04-23 12:36 | 41.10889 | 103.86731 | 38057 ft | 423 kts | 292° |
| 2026-04-23 12:37 | 41.12962 | 103.79446 | 38069 ft | 422 kts | 292° |
| 2026-04-23 12:37 | 41.15022 | 103.72186 | 38056 ft | 422 kts | 292° |
| 2026-04-23 12:38 | 41.17087 | 103.64887 | 38056 ft | 422 kts | 292° |
| 2026-04-23 12:38 | 41.19141 | 103.57606 | 38052 ft | 421 kts | 292° |
| 2026-04-23 12:39 | 41.21186 | 103.50333 | 38037 ft | 421 kts | 293° |
| 2026-04-23 12:39 | 41.23226 | 103.43057 | 38048 ft | 421 kts | 292° |
| 2026-04-23 12:40 | 41.25261 | 103.35781 | 38048 ft | 420 kts | 293° |
| 2026-04-23 12:40 | 41.27290 | 103.28505 | 38042 ft | 420 kts | 292° |
| 2026-04-23 12:41 | 41.29304 | 103.21259 | 38047 ft | 419 kts | 292° |
| 2026-04-23 12:41 | 41.31311 | 103.14020 | 38043 ft | 419 kts | 292° |
| 2026-04-23 12:42 | 41.33326 | 103.06733 | 38056 ft | 419 kts | 292° |
| 2026-04-23 12:42 | 41.35327 | 102.99473 | 38047 ft | 419 kts | 292° |
| 2026-04-23 12:43 | 41.37402 | 102.92239 | 38044 ft | 419 kts | 293° |
| 2026-04-23 12:43 | 41.39498 | 102.84973 | 38042 ft | 419 kts | 293° |
| 2026-04-23 12:44 | 41.41574 | 102.77758 | 38041 ft | 419 kts | 293° |
| 2026-04-23 12:44 | 41.43656 | 102.70501 | 38037 ft | 418 kts | 293° |
| 2026-04-23 12:45 | 41.45732 | 102.63290 | 38041 ft | 417 kts | 294° |
| 2026-04-23 12:45 | 41.47807 | 102.56068 | 38035 ft | 417 kts | 294° |
| 2026-04-23 12:46 | 41.49875 | 102.48850 | 38035 ft | 416 kts | 294° |
| 2026-04-23 12:46 | 41.51923 | 102.41685 | 38031 ft | 417 kts | 294° |
| 2026-04-23 12:47 | 41.53984 | 102.34450 | 38031 ft | 417 kts | 293° |
| 2026-04-23 12:47 | 41.56044 | 102.27196 | 38022 ft | 417 kts | 293° |
| 2026-04-23 12:48 | 41.58077 | 102.20018 | 38026 ft | 416 kts | 293° |
| 2026-04-23 12:48 | 41.60120 | 102.12782 | 38011 ft | 416 kts | 293° |
| 2026-04-23 12:49 | 41.62166 | 102.05518 | 38016 ft | 416 kts | 293° |
| 2026-04-23 12:49 | 41.64192 | 101.98304 | 38007 ft | 416 kts | 294° |
| 2026-04-23 12:50 | 41.66220 | 101.91061 | 38014 ft | 415 kts | 294° |
| 2026-04-23 12:50 | 41.68247 | 101.83800 | 38006 ft | 415 kts | 294° |
| 2026-04-23 12:51 | 41.70251 | 101.76601 | 38002 ft | 414 kts | 294° |
| 2026-04-23 12:51 | 41.72253 | 101.69392 | 38012 ft | 413 kts | 294° |
| 2026-04-23 12:52 | 41.74250 | 101.62176 | 38004 ft | 413 kts | 294° |
| 2026-04-23 12:52 | 41.76252 | 101.54925 | 38002 ft | 413 kts | 294° |
| 2026-04-23 12:53 | 41.78238 | 101.47709 | 38008 ft | 413 kts | 294° |
| 2026-04-23 12:53 | 41.80236 | 101.40428 | 38003 ft | 413 kts | 294° |
| 2026-04-23 12:54 | 41.82232 | 101.33134 | 38007 ft | 414 kts | 293° |
| 2026-04-23 12:54 | 41.84196 | 101.25877 | 37998 ft | 414 kts | 292° |
| 2026-04-23 12:55 | 41.85228 | 101.18208 | 38016 ft | 422 kts | 278° |
| 2026-04-23 12:55 | 41.85423 | 101.10321 | 38022 ft | 422 kts | 277° |
| 2026-04-23 12:56 | 41.85614 | 101.02399 | 38006 ft | 423 kts | 277° |
| 2026-04-23 12:56 | 41.85798 | 100.94529 | 38017 ft | 422 kts | 277° |
| 2026-04-23 12:57 | 41.85977 | 100.86646 | 38019 ft | 422 kts | 277° |
| 2026-04-23 12:57 | 41.86152 | 100.78748 | 38020 ft | 422 kts | 277° |
| 2026-04-23 12:58 | 41.86321 | 100.70842 | 38029 ft | 422 kts | 277° |
| 2026-04-23 12:58 | 41.86484 | 100.62972 | 38028 ft | 422 kts | 277° |
| 2026-04-23 12:59 | 41.86642 | 100.55057 | 38024 ft | 421 kts | 277° |
| 2026-04-23 12:59 | 41.86797 | 100.47125 | 38017 ft | 421 kts | 277° |
| 2026-04-23 13:00 | 41.86945 | 100.39246 | 38032 ft | 421 kts | 277° |
| 2026-04-23 13:00 | 41.87087 | 100.31367 | 38021 ft | 422 kts | 277° |
| 2026-04-23 13:01 | 41.87223 | 100.23515 | 38022 ft | 422 kts | 277° |
| 2026-04-23 13:01 | 41.87354 | 100.15694 | 38032 ft | 422 kts | 277° |
| 2026-04-23 13:02 | 41.87480 | 100.07802 | 38031 ft | 422 kts | 277° |
| 2026-04-23 13:02 | 41.87600 | 99.99985 | 38037 ft | 421 kts | 277° |
| 2026-04-23 13:03 | 41.87714 | 99.92163 | 38033 ft | 420 kts | 277° |
| 2026-04-23 13:03 | 41.87823 | 99.84332 | 38038 ft | 420 kts | 277° |
| 2026-04-23 13:04 | 41.87928 | 99.76512 | 38051 ft | 420 kts | 277° |
| 2026-04-23 13:04 | 41.88026 | 99.68688 | 38065 ft | 420 kts | 277° |
| 2026-04-23 13:05 | 41.88119 | 99.60886 | 38065 ft | 421 kts | 277° |
| 2026-04-23 13:05 | 41.88208 | 99.53029 | 38083 ft | 421 kts | 277° |
| 2026-04-23 13:06 | 41.88330 | 99.41270 | 38098 ft | 420 kts | 278° |
| 2026-04-23 13:07 | 41.88416 | 99.32190 | 38108 ft | 420 kts | 277° |
| 2026-04-23 13:07 | 41.88475 | 99.25618 | 38100 ft | 420 kts | 277° |
| 2026-04-23 13:08 | 41.88539 | 99.17822 | 38127 ft | 420 kts | 277° |
| 2026-04-23 13:08 | 41.88598 | 99.09971 | 38125 ft | 420 kts | 277° |
| 2026-04-23 13:09 | 41.88650 | 99.02142 | 38143 ft | 419 kts | 277° |
| 2026-04-23 13:09 | 41.88698 | 98.94341 | 38152 ft | 419 kts | 277° |
| 2026-04-23 13:10 | 41.88741 | 98.86507 | 38159 ft | 419 kts | 278° |
| 2026-04-23 13:10 | 41.88778 | 98.78693 | 38158 ft | 418 kts | 278° |
| 2026-04-23 13:11 | 41.88810 | 98.70885 | 38174 ft | 418 kts | 278° |
| 2026-04-23 13:11 | 41.88837 | 98.63120 | 38186 ft | 417 kts | 278° |
| 2026-04-23 13:12 | 41.88859 | 98.55296 | 38185 ft | 418 kts | 278° |
| 2026-04-23 13:12 | 41.88875 | 98.47495 | 38189 ft | 418 kts | 278° |
| 2026-04-23 13:13 | 41.88886 | 98.39705 | 38186 ft | 418 kts | 278° |
| 2026-04-23 13:13 | 41.88891 | 98.31936 | 38192 ft | 418 kts | 278° |
| 2026-04-23 13:14 | 41.88891 | 98.24117 | 38197 ft | 418 kts | 278° |
| 2026-04-23 13:14 | 41.88886 | 98.16322 | 38193 ft | 418 kts | 278° |
| 2026-04-23 13:15 | 41.88876 | 98.08500 | 38194 ft | 418 kts | 278° |
| 2026-04-23 13:15 | 41.88860 | 98.00726 | 38200 ft | 417 kts | 278° |
| 2026-04-23 13:16 | 41.88839 | 97.92942 | 38199 ft | 416 kts | 278° |
| 2026-04-23 13:16 | 41.88813 | 97.85188 | 38205 ft | 416 kts | 278° |
| 2026-04-23 13:17 | 41.88782 | 97.77405 | 38214 ft | 416 kts | 278° |
| 2026-04-23 13:17 | 41.88746 | 97.69685 | 38218 ft | 416 kts | 278° |
| 2026-04-23 13:18 | 41.88704 | 97.61904 | 38218 ft | 415 kts | 278° |
| 2026-04-23 13:18 | 41.88657 | 97.54160 | 38220 ft | 414 kts | 278° |
| 2026-04-23 13:19 | 41.88605 | 97.46399 | 38217 ft | 414 kts | 278° |
| 2026-04-23 13:19 | 41.88547 | 97.38684 | 38211 ft | 413 kts | 278° |
| 2026-04-23 13:20 | 41.88486 | 97.30993 | 38245 ft | 412 kts | 278° |
| 2026-04-23 13:20 | 41.88419 | 97.23291 | 38236 ft | 413 kts | 278° |
| 2026-04-23 13:21 | 41.88347 | 97.15551 | 38245 ft | 413 kts | 277° |
| 2026-04-23 13:21 | 41.88269 | 97.07838 | 38239 ft | 413 kts | 278° |
| 2026-04-23 13:22 | 41.88186 | 97.00147 | 38257 ft | 412 kts | 278° |
| 2026-04-23 13:22 | 41.88097 | 96.92432 | 38253 ft | 410 kts | 278° |
| 2026-04-23 13:23 | 41.88004 | 96.84766 | 38254 ft | 410 kts | 278° |
| 2026-04-23 13:23 | 41.87908 | 96.77132 | 38255 ft | 411 kts | 278° |
| 2026-04-23 13:24 | 41.87805 | 96.69463 | 38267 ft | 410 kts | 278° |
| 2026-04-23 13:24 | 41.87697 | 96.61806 | 38272 ft | 410 kts | 278° |
| 2026-04-23 13:25 | 41.87584 | 96.54137 | 38281 ft | 409 kts | 277° |
| 2026-04-23 13:25 | 41.87467 | 96.46552 | 38284 ft | 408 kts | 278° |
| 2026-04-23 13:26 | 41.87345 | 96.38934 | 38333 ft | 406 kts | 278° |
| 2026-04-23 13:26 | 41.87217 | 96.31317 | 38288 ft | 408 kts | 277° |
| 2026-04-23 13:27 | 41.87089 | 96.23670 | 38295 ft | 407 kts | 277° |
| 2026-04-23 13:27 | 41.87048 | 96.16087 | 38303 ft | 407 kts | 278° |
| 2026-04-23 13:28 | 41.87007 | 96.08457 | 38303 ft | 407 kts | 278° |
| 2026-04-23 13:28 | 41.86955 | 96.00875 | 38314 ft | 405 kts | 277° |
| 2026-04-23 13:29 | 41.86897 | 95.93306 | 38317 ft | 404 kts | 277° |
| 2026-04-23 13:29 | 41.86836 | 95.85802 | 38303 ft | 404 kts | 278° |
| 2026-04-23 13:30 | 41.86779 | 95.78244 | 38295 ft | 403 kts | 277° |
| 2026-04-23 13:30 | 41.86715 | 95.70699 | 38299 ft | 403 kts | 277° |
| 2026-04-23 13:31 | 41.86647 | 95.63168 | 38300 ft | 403 kts | 277° |
| 2026-04-23 13:31 | 41.86572 | 95.55621 | 38278 ft | 403 kts | 277° |
| 2026-04-23 13:32 | 41.86492 | 95.48109 | 38278 ft | 402 kts | 277° |
| 2026-04-23 13:32 | 41.86407 | 95.40630 | 38264 ft | 401 kts | 277° |
| 2026-04-23 13:33 | 41.86317 | 95.33102 | 38269 ft | 401 kts | 276° |
| 2026-04-23 13:33 | 41.86488 | 95.25666 | 38269 ft | 393 kts | 285° |
| 2026-04-23 13:34 | 41.88024 | 95.18755 | 38248 ft | 382 kts | 299° |
| 2026-04-23 13:34 | 41.90868 | 95.12805 | 38229 ft | 376 kts | 311° |
| 2026-04-23 13:35 | 41.94318 | 95.07541 | 38225 ft | 375 kts | 313° |
| 2026-04-23 13:35 | 41.97772 | 95.02268 | 38217 ft | 376 kts | 312° |
| 2026-04-23 13:36 | 42.01234 | 94.96974 | 38200 ft | 376 kts | 313° |
| 2026-04-23 13:36 | 42.04680 | 94.91693 | 38206 ft | 375 kts | 312° |
| 2026-04-23 13:37 | 42.08126 | 94.86404 | 38210 ft | 376 kts | 313° |
| 2026-04-23 13:37 | 42.11597 | 94.81065 | 38189 ft | 378 kts | 312° |
| 2026-04-23 13:38 | 42.15054 | 94.75739 | 38184 ft | 377 kts | 313° |
| 2026-04-23 13:38 | 42.18504 | 94.70415 | 38186 ft | 377 kts | 312° |
| 2026-04-23 13:39 | 42.21954 | 94.65079 | 38178 ft | 377 kts | 312° |
| 2026-04-23 13:39 | 42.25413 | 94.59718 | 38172 ft | 377 kts | 312° |
| 2026-04-23 13:40 | 42.28859 | 94.54372 | 38159 ft | 378 kts | 312° |
| 2026-04-23 13:40 | 42.32343 | 94.48953 | 38161 ft | 377 kts | 312° |
| 2026-04-23 13:41 | 42.35788 | 94.43586 | 38161 ft | 378 kts | 312° |
| 2026-04-23 13:41 | 42.39234 | 94.38207 | 38157 ft | 378 kts | 312° |
| 2026-04-23 13:42 | 42.42669 | 94.32835 | 38159 ft | 378 kts | 311° |
| 2026-04-23 13:42 | 42.46118 | 94.27433 | 38145 ft | 378 kts | 311° |
| 2026-04-23 13:43 | 42.49566 | 94.22021 | 38152 ft | 378 kts | 311° |
| 2026-04-23 13:43 | 42.52984 | 94.16647 | 38160 ft | 377 kts | 312° |
| 2026-04-23 13:44 | 42.56430 | 94.11218 | 38170 ft | 378 kts | 312° |
| 2026-04-23 13:44 | 42.59850 | 94.05821 | 38155 ft | 378 kts | 311° |
| 2026-04-23 13:45 | 42.63274 | 94.00407 | 38148 ft | 378 kts | 312° |
| 2026-04-23 13:45 | 42.66109 | 93.95919 | 38153 ft | 379 kts | 311° |
| 2026-04-23 13:46 | 42.69550 | 93.90459 | 38154 ft | 379 kts | 311° |
| 2026-04-23 13:46 | 42.72977 | 93.85011 | 38148 ft | 379 kts | 311° |
| 2026-04-23 13:47 | 42.76408 | 93.79547 | 38163 ft | 380 kts | 311° |
| 2026-04-23 13:47 | 42.79846 | 93.74062 | 38173 ft | 380 kts | 311° |
| 2026-04-23 13:48 | 42.83231 | 93.68568 | 38165 ft | 380 kts | 308° |
| 2026-04-23 13:48 | 42.85638 | 93.62346 | 38149 ft | 386 kts | 295° |
| 2026-04-23 13:49 | 42.87588 | 93.55537 | 38158 ft | 387 kts | 295° |
| 2026-04-23 13:49 | 42.89550 | 93.48686 | 38187 ft | 391 kts | 295° |
| 2026-04-23 13:50 | 42.91515 | 93.41801 | 38135 ft | 388 kts | 296° |
| 2026-04-23 13:50 | 42.93455 | 93.34982 | 37921 ft | 387 kts | 294° |
| 2026-04-23 13:50 | 42.94436 | 93.31531 | 38077 ft | 389 kts | 295° |
| 2026-04-23 13:51 | 42.95414 | 93.28091 | 38018 ft | 389 kts | 295° |
| 2026-04-23 13:51 | 42.97356 | 93.21229 | 38122 ft | 389 kts | 295° |
| 2026-04-23 13:52 | 42.99307 | 93.14317 | 38094 ft | 391 kts | 294° |
| 2026-04-23 13:52 | 43.01250 | 93.07413 | 38093 ft | 391 kts | 294° |
| 2026-04-23 13:53 | 43.03205 | 93.00447 | 38094 ft | 392 kts | 294° |
| 2026-04-23 13:53 | 43.05145 | 92.93511 | 38077 ft | 394 kts | 294° |
| 2026-04-23 13:54 | 43.07090 | 92.86545 | 38081 ft | 393 kts | 294° |
| 2026-04-23 13:54 | 43.09042 | 92.79527 | 38077 ft | 394 kts | 294° |
| 2026-04-23 13:55 | 43.10983 | 92.72533 | 38094 ft | 394 kts | 294° |
| 2026-04-23 13:55 | 43.12920 | 92.65529 | 38094 ft | 394 kts | 294° |
| 2026-04-23 13:56 | 43.14858 | 92.58508 | 38118 ft | 394 kts | 294° |
| 2026-04-23 13:56 | 43.16874 | 92.51579 | 38121 ft | 393 kts | 295° |
| 2026-04-23 13:57 | 43.18906 | 92.44598 | 38131 ft | 393 kts | 295° |
| 2026-04-23 13:57 | 43.20913 | 92.37663 | 38134 ft | 392 kts | 295° |
| 2026-04-23 13:58 | 43.22925 | 92.30728 | 38125 ft | 393 kts | 294° |
| 2026-04-23 13:58 | 43.24781 | 92.23653 | 38150 ft | 395 kts | 292° |
| 2026-04-23 13:59 | 43.26591 | 92.16534 | 38144 ft | 396 kts | 292° |
| 2026-04-23 13:59 | 43.28401 | 92.09431 | 38153 ft | 396 kts | 292° |
| 2026-04-23 14:00 | 43.30192 | 92.02338 | 38161 ft | 395 kts | 292° |
| 2026-04-23 14:00 | 43.32050 | 91.95249 | 38138 ft | 394 kts | 294° |
| 2026-04-23 14:01 | 43.34061 | 91.88270 | 38129 ft | 395 kts | 294° |
| 2026-04-23 14:01 | 43.36035 | 91.81244 | 38131 ft | 395 kts | 294° |
| 2026-04-23 14:02 | 43.38031 | 91.74198 | 38098 ft | 395 kts | 294° |
| 2026-04-23 14:02 | 43.40004 | 91.67179 | 38131 ft | 394 kts | 293° |
| 2026-04-23 14:03 | 43.41961 | 91.60197 | 38119 ft | 394 kts | 294° |
| 2026-04-23 14:03 | 43.43937 | 91.53149 | 38138 ft | 394 kts | 294° |
| 2026-04-23 14:04 | 43.45982 | 91.46193 | 38107 ft | 394 kts | 295° |
| 2026-04-23 14:04 | 43.48048 | 91.39188 | 38133 ft | 395 kts | 294° |
| 2026-04-23 14:05 | 43.50100 | 91.32173 | 38161 ft | 394 kts | 294° |
| 2026-04-23 14:05 | 43.52164 | 91.25146 | 38182 ft | 395 kts | 294° |
| 2026-04-23 14:06 | 43.54215 | 91.18114 | 38201 ft | 396 kts | 294° |
| 2026-04-23 14:06 | 43.56273 | 91.11037 | 38198 ft | 396 kts | 294° |
| 2026-04-23 14:07 | 43.58319 | 91.03989 | 38203 ft | 395 kts | 294° |
| 2026-04-23 14:07 | 43.61370 | 90.93440 | 38181 ft | 396 kts | 293° |
| 2026-04-23 14:08 | 43.63396 | 90.86413 | 38203 ft | 395 kts | 293° |
| 2026-04-23 14:08 | 43.65437 | 90.79314 | 38196 ft | 396 kts | 294° |
| 2026-04-23 14:09 | 43.67457 | 90.72258 | 38184 ft | 397 kts | 294° |
| 2026-04-23 14:09 | 43.69492 | 90.65135 | 38225 ft | 397 kts | 294° |
| 2026-04-23 14:10 | 43.71528 | 90.58034 | 38183 ft | 398 kts | 294° |
| 2026-04-23 14:10 | 43.73567 | 90.50951 | 38196 ft | 397 kts | 294° |
| 2026-04-23 14:11 | 43.75599 | 90.43854 | 38182 ft | 397 kts | 294° |
| 2026-04-23 14:11 | 43.77618 | 90.36777 | 38177 ft | 396 kts | 294° |
| 2026-04-23 14:12 | 43.79649 | 90.29642 | 38188 ft | 397 kts | 293° |
| 2026-04-23 14:12 | 43.81657 | 90.22566 | 38176 ft | 398 kts | 293° |
| 2026-04-23 14:13 | 43.82663 | 90.19015 | 37959 ft | 396 kts | 293° |
| 2026-04-23 14:13 | 43.83655 | 90.15500 | 38132 ft | 391 kts | 293° |
| 2026-04-23 14:13 | 43.85670 | 90.08366 | 38117 ft | 405 kts | 292° |
| 2026-04-23 14:14 | 43.86700 | 90.04709 | 37549 ft | 411 kts | 292° |
| 2026-04-23 14:14 | 43.87708 | 90.01116 | 37353 ft | 385 kts | 293° |
| 2026-04-23 14:14 | 43.88644 | 89.97774 | 37954 ft | 374 kts | 293° |
| 2026-04-23 14:14 | 43.89600 | 89.94371 | 38208 ft | 382 kts | 293° |
| 2026-04-23 14:15 | 43.90572 | 89.90907 | 37973 ft | 398 kts | 294° |
| 2026-04-23 14:15 | 43.91562 | 89.87364 | 38075 ft | 395 kts | 293° |
| 2026-04-23 14:15 | 43.93560 | 89.80201 | 38119 ft | 397 kts | 293° |
| 2026-04-23 14:16 | 43.94541 | 89.76677 | 37912 ft | 395 kts | 293° |
| 2026-04-23 14:16 | 43.95520 | 89.73152 | 38099 ft | 391 kts | 293° |
| 2026-04-23 14:16 | 43.96507 | 89.69601 | 37648 ft | 404 kts | 292° |
| 2026-04-23 14:16 | 43.97523 | 89.65933 | 37420 ft | 404 kts | 292° |
| 2026-04-23 14:17 | 43.98513 | 89.62263 | 36400 ft | 418 kts | 289° |
| 2026-04-23 14:17 | 43.99128 | 89.58415 | 35623 ft | 399 kts | 282° |
| 2026-04-23 14:17 | 43.99500 | 89.54737 | 35733 ft | 382 kts | 282° |
| 2026-04-23 14:17 | 43.99944 | 89.51046 | 35182 ft | 389 kts | 283° |
| 2026-04-23 14:18 | 44.00390 | 89.47419 | 34873 ft | 382 kts | 282° |
| 2026-04-23 14:18 | 44.00811 | 89.43786 | 34478 ft | 383 kts | 282° |
| 2026-04-23 14:18 | 44.01235 | 89.40157 | 34063 ft | 383 kts | 282° |
| 2026-04-23 14:18 | 44.01666 | 89.36462 | 33650 ft | 384 kts | 282° |
| 2026-04-23 14:19 | 44.02087 | 89.32805 | 33261 ft | 385 kts | 281° |
| 2026-04-23 14:19 | 44.02506 | 89.29166 | 32801 ft | 387 kts | 281° |
| 2026-04-23 14:19 | 44.02938 | 89.25444 | 32335 ft | 389 kts | 282° |
| 2026-04-23 14:19 | 44.03365 | 89.21742 | 31906 ft | 389 kts | 282° |
| 2026-04-23 14:20 | 44.03787 | 89.18032 | 31499 ft | 392 kts | 282° |
| 2026-04-23 14:20 | 44.04208 | 89.14303 | 31065 ft | 394 kts | 281° |
| 2026-04-23 14:20 | 44.04637 | 89.10500 | 30649 ft | 398 kts | 282° |
| 2026-04-23 14:20 | 44.05065 | 89.06701 | 30196 ft | 401 kts | 282° |
| 2026-04-23 14:21 | 44.05232 | 89.05212 | 30029 ft | 402 kts | 282° |
| 2026-04-23 14:21 | 44.05288 | 89.04713 | 29973 ft | 403 kts | 282° |
| 2026-04-23 14:21 | 44.05724 | 89.00831 | 29541 ft | 406 kts | 282° |
| 2026-04-23 14:21 | 44.06158 | 88.96955 | 29079 ft | 409 kts | 281° |
| 2026-04-23 14:22 | 44.06593 | 88.93034 | 28640 ft | 408 kts | 281° |
| 2026-04-23 14:22 | 44.07023 | 88.89138 | 28196 ft | 408 kts | 281° |
| 2026-04-23 14:22 | 44.07449 | 88.85259 | 27749 ft | 406 kts | 281° |
| 2026-04-23 14:22 | 44.07874 | 88.81391 | 27308 ft | 406 kts | 281° |
| 2026-04-23 14:23 | 44.08305 | 88.77520 | 26862 ft | 403 kts | 281° |
| 2026-04-23 14:23 | 44.08731 | 88.73719 | 26434 ft | 402 kts | 281° |
| 2026-04-23 14:23 | 44.09155 | 88.69901 | 25974 ft | 400 kts | 281° |
| 2026-04-23 14:23 | 44.09576 | 88.66073 | 25537 ft | 398 kts | 281° |
| 2026-04-23 14:24 | 44.09991 | 88.62264 | 25092 ft | 397 kts | 281° |
| 2026-04-23 14:24 | 44.10399 | 88.58515 | 24651 ft | 395 kts | 281° |
| 2026-04-23 14:24 | 44.10810 | 88.54750 | 24225 ft | 393 kts | 281° |
| 2026-04-23 14:24 | 44.11220 | 88.51006 | 23790 ft | 393 kts | 281° |
| 2026-04-23 14:25 | 44.11634 | 88.47233 | 23355 ft | 392 kts | 281° |
| 2026-04-23 14:25 | 44.12044 | 88.43487 | 22922 ft | 390 kts | 281° |
| 2026-04-23 14:25 | 44.12447 | 88.39765 | 22466 ft | 391 kts | 281° |
| 2026-04-23 14:25 | 44.12850 | 88.36028 | 22037 ft | 388 kts | 281° |
| 2026-04-23 14:26 | 44.13248 | 88.32322 | 21604 ft | 387 kts | 280° |
| 2026-04-23 14:26 | 44.13646 | 88.28623 | 21173 ft | 385 kts | 280° |
| 2026-04-23 14:26 | 44.14038 | 88.24976 | 20749 ft | 384 kts | 280° |
| 2026-04-23 14:26 | 44.14436 | 88.21284 | 20322 ft | 380 kts | 280° |
| 2026-04-23 14:27 | 44.14822 | 88.17669 | 19985 ft | 380 kts | 280° |
| 2026-04-23 14:27 | 44.15207 | 88.14030 | 19482 ft | 380 kts | 279° |
| 2026-04-23 14:27 | 44.15581 | 88.10449 | 19077 ft | 377 kts | 279° |
| 2026-04-23 14:27 | 44.15986 | 88.06863 | 18649 ft | 375 kts | 282° |
| 2026-04-23 14:28 | 44.16540 | 88.03341 | 18212 ft | 373 kts | 284° |
| 2026-04-23 14:28 | 44.16871 | 87.99744 | 17794 ft | 370 kts | 271° |
| 2026-04-23 14:28 | 44.16453 | 87.96240 | 17384 ft | 369 kts | 253° |
| 2026-04-23 14:28 | 44.15356 | 87.93051 | 16896 ft | 367 kts | 244° |
| 2026-04-23 14:29 | 44.14143 | 87.89947 | 16524 ft | 360 kts | 244° |
| 2026-04-23 14:29 | 44.12999 | 87.86904 | 16147 ft | 355 kts | 245° |
| 2026-04-23 14:29 | 44.11856 | 87.83861 | 15732 ft | 349 kts | 244° |
| 2026-04-23 14:29 | 44.10740 | 87.80925 | 15359 ft | 343 kts | 244° |
| 2026-04-23 14:30 | 44.09625 | 87.78009 | 14977 ft | 336 kts | 244° |
| 2026-04-23 14:30 | 44.08537 | 87.75159 | 14610 ft | 330 kts | 244° |
| 2026-04-23 14:30 | 44.07518 | 87.72383 | 14272 ft | 322 kts | 249° |
| 2026-04-23 14:30 | 44.06845 | 87.69457 | 13871 ft | 316 kts | 257° |
| 2026-04-23 14:31 | 44.06260 | 87.66528 | 13600 ft | 306 kts | 256° |
| 2026-04-23 14:31 | 44.05655 | 87.63700 | 13280 ft | 305 kts | 255° |
| 2026-04-23 14:31 | 44.05045 | 87.60861 | 12921 ft | 299 kts | 255° |
| 2026-04-23 14:31 | 44.04467 | 87.58125 | 12607 ft | 292 kts | 255° |
| 2026-04-23 14:32 | 44.03907 | 87.55464 | 12281 ft | 286 kts | 255° |
| 2026-04-23 14:32 | 44.03349 | 87.52831 | 11953 ft | 281 kts | 255° |
| 2026-04-23 14:32 | 44.02797 | 87.50237 | 11656 ft | 275 kts | 255° |
| 2026-04-23 14:32 | 44.02260 | 87.47733 | 11347 ft | 271 kts | 255° |
| 2026-04-23 14:33 | 44.01731 | 87.45255 | 11068 ft | 265 kts | 255° |
| 2026-04-23 14:33 | 44.01212 | 87.42818 | 10756 ft | 261 kts | 255° |
| 2026-04-23 14:33 | 44.00702 | 87.40427 | 10496 ft | 256 kts | 255° |
| 2026-04-23 14:33 | 44.00200 | 87.38080 | 10198 ft | 253 kts | 254° |
| 2026-04-23 14:34 | 43.99697 | 87.35741 | 9927 ft | 248 kts | 254° |
| 2026-04-23 14:34 | 43.99208 | 87.33463 | 9658 ft | 245 kts | 253° |
| 2026-04-23 14:34 | 43.98725 | 87.31204 | 9383 ft | 245 kts | 253° |
| 2026-04-23 14:34 | 43.98239 | 87.28928 | 9119 ft | 247 kts | 253° |
| 2026-04-23 14:35 | 43.97750 | 87.26640 | 8840 ft | 248 kts | 253° |
| 2026-04-23 14:35 | 43.97259 | 87.24352 | 8569 ft | 249 kts | 253° |
| 2026-04-23 14:35 | 43.96762 | 87.22034 | 8298 ft | 248 kts | 253° |
| 2026-04-23 14:35 | 43.96269 | 87.19742 | 8020 ft | 247 kts | 253° |
| 2026-04-23 14:36 | 43.95593 | 87.17566 | 7729 ft | 244 kts | 235° |
| 2026-04-23 14:36 | 43.94395 | 87.15977 | 7396 ft | 243 kts | 210° |
| 2026-04-23 14:36 | 43.92804 | 87.15218 | 7060 ft | 243 kts | 186° |
| 2026-04-23 14:36 | 43.91118 | 87.15440 | 6654 ft | 245 kts | 163° |
| 2026-04-23 14:37 | 43.89516 | 87.16170 | 6399 ft | 237 kts | 154° |
| 2026-04-23 14:37 | 43.88170 | 87.17398 | 6134 ft | 229 kts | 133° |
| 2026-04-23 14:37 | 43.87370 | 87.19229 | 5922 ft | 220 kts | 104° |
| 2026-04-23 14:37 | 43.87368 | 87.21303 | 5577 ft | 213 kts | 77° |
| 2026-04-23 14:38 | 43.87703 | 87.23242 | 5274 ft | 205 kts | 76° |
| 2026-04-23 14:38 | 43.88056 | 87.25128 | 5022 ft | 196 kts | 74° |
| 2026-04-23 14:38 | 43.88426 | 87.26935 | 4751 ft | 194 kts | 73° |
| 2026-04-23 14:38 | 43.88808 | 87.28738 | 4536 ft | 193 kts | 73° |
| 2026-04-23 14:39 | 43.89173 | 87.30453 | 4244 ft | 180 kts | 73° |
| 2026-04-23 14:39 | 43.89516 | 87.32062 | 4066 ft | 172 kts | 73° |
| 2026-04-23 14:39 | 43.89849 | 87.33629 | 3878 ft | 158 kts | 73° |
| 2026-04-23 14:39 | 43.90144 | 87.35015 | 3703 ft | 150 kts | 72° |
| 2026-04-23 14:40 | 43.90444 | 87.36373 | 3391 ft | 144 kts | 73° |
| 2026-04-23 14:40 | 43.90725 | 87.37684 | 3214 ft | 141 kts | 73° |
| 2026-04-23 14:40 | 43.91001 | 87.38979 | 3066 ft | 140 kts | 73° |
| 2026-04-23 14:40 | 43.91279 | 87.40273 | 2920 ft | 140 kts | 73° |
| 2026-04-23 14:41 | 43.91552 | 87.41554 | 2750 ft | 140 kts | 69° |
| 2026-04-23 14:41 | 43.91833 | 87.42849 | 2572 ft | 140 kts | 68° |
| 2026-04-23 14:41 | 43.92110 | 87.44158 | 2374 ft | 140 kts | 70° |
| 2026-04-23 14:41 | 43.92375 | 87.45449 | 2176 ft | 138 kts | 68° |
| 2026-04-23 14:42 | 43.92621 | 87.46604 | 2141 ft | 111 kts | 72° |
| 2026-04-23 14:42 | 43.92789 | 87.47412 | 2140 ft | 59 kts | 74° |
| 2026-04-23 14:42 | 43.92870 | 87.47828 | 2140 ft | 28 kts | 88° |
| 2026-04-23 14:42 | 43.92859 | 87.48080 | 2140 ft | 23 kts | 103° |
| 2026-04-23 14:43 | 43.92824 | 87.48255 | 2140 ft | 10 kts | 97° |
| 2026-04-23 14:43 | 43.92823 | 87.48374 | 2140 ft | 13 kts | 76° |
| 2026-04-23 14:43 | 43.92820 | 87.48495 | 2140 ft | 14 kts | 153° |
| 2026-04-23 14:43 | 43.92717 | 87.48540 | 2140 ft | 17 kts | 163° |
| 2026-04-23 14:44 | 43.92593 | 87.48592 | 2140 ft | 20 kts | 163° |
| 2026-04-23 14:44 | 43.92510 | 87.48575 | 2141 ft | 11 kts | 239° |
| 2026-04-23 14:44 | 43.92473 | 87.48529 | 2141 ft | 7 kts | 168° |
| 2026-04-23 14:44 | 43.92413 | 87.48556 | 2141 ft | 10 kts | 160° |
| 2026-04-23 14:45 | 43.92342 | 87.48600 | 2141 ft | 4 kts | 176° |
| 2026-04-23 14:45 | 43.92322 | 87.48545 | 2141 ft | 8 kts | 255° |
| 2026-04-23 14:45 | 43.92294 | 87.48516 | 2141 ft | 4 kts | 179° |
| 2026-04-23 14:45 | 43.92250 | 87.48524 | 2141 ft | 7 kts | 168° |
| 2026-04-23 14:46 | 43.92229 | 87.48530 | 2141 ft | 4 kts | 163° |
| 2026-04-23 14:46 | 43.92218 | 87.48534 | 2141 ft | 1 kts | 163° |
| 2026-04-23 14:46 | 43.92217 | 87.48535 | 2141 ft | 0 kts | 163° |